sensor_id;sensor_type;location;lat;lon;timestamp;temperature;humidity
68248;SHT30;55064;49.636;12.164;2023-01-29T00:01:05;-2.62;82.99
68248;SHT30;55064;49.636;12.164;2023-01-29T00:03:32;-2.70;82.78
68248;SHT30;55064;49.636;12.164;2023-01-29T00:06:03;-2.65;83.07
68248;SHT30;55064;49.636;12.164;2023-01-29T00:08:29;-2.69;83.20
68248;SHT30;55064;49.636;12.164;2023-01-29T00:11:05;-2.69;83.36
68248;SHT30;55064;49.636;12.164;2023-01-29T00:13:31;-2.69;83.26
68248;SHT30;55064;49.636;12.164;2023-01-29T00:16:01;-2.68;83.20
68248;SHT30;55064;49.636;12.164;2023-01-29T00:18:27;-2.59;82.69
68248;SHT30;55064;49.636;12.164;2023-01-29T00:20:54;-2.62;82.96
68248;SHT30;55064;49.636;12.164;2023-01-29T00:23:20;-2.65;82.95
68248;SHT30;55064;49.636;12.164;2023-01-29T00:25:45;-2.66;83.12
68248;SHT30;55064;49.636;12.164;2023-01-29T00:28:11;-2.61;82.69
68248;SHT30;55064;49.636;12.164;2023-01-29T00:30:37;-2.58;81.82
68248;SHT30;55064;49.636;12.164;2023-01-29T00:33:05;-2.66;81.62
68248;SHT30;55064;49.636;12.164;2023-01-29T00:35:32;-2.69;82.67
68248;SHT30;55064;49.636;12.164;2023-01-29T00:38:00;-2.76;83.07
68248;SHT30;55064;49.636;12.164;2023-01-29T00:40:25;-2.76;82.80
68248;SHT30;55064;49.636;12.164;2023-01-29T00:42:51;-2.76;83.51
68248;SHT30;55064;49.636;12.164;2023-01-29T00:45:35;-2.73;83.40
68248;SHT30;55064;49.636;12.164;2023-01-29T00:48:03;-2.73;83.43
68248;SHT30;55064;49.636;12.164;2023-01-29T00:50:29;-2.73;82.99
68248;SHT30;55064;49.636;12.164;2023-01-29T00:52:58;-2.72;82.94
68248;SHT30;55064;49.636;12.164;2023-01-29T00:55:23;-2.69;83.31
68248;SHT30;55064;49.636;12.164;2023-01-29T00:57:50;-2.65;83.32
68248;SHT30;55064;49.636;12.164;2023-01-29T01:00:17;-2.68;83.14
68248;SHT30;55064;49.636;12.164;2023-01-29T01:02:43;-2.68;82.94
68248;SHT30;55064;49.636;12.164;2023-01-29T01:05:27;-2.70;83.22
68248;SHT30;55064;49.636;12.164;2023-01-29T01:07:55;-2.75;83.59
68248;SHT30;55064;49.636;12.164;2023-01-29T01:10:25;-2.73;83.55
68248;SHT30;55064;49.636;12.164;2023-01-29T01:15:19;-2.79;83.71
68248;SHT30;55064;49.636;12.164;2023-01-29T01:17:51;-2.72;83.02
68248;SHT30;55064;49.636;12.164;2023-01-29T01:20:16;-2.72;82.51
68248;SHT30;55064;49.636;12.164;2023-01-29T01:22:42;-2.70;82.89
68248;SHT30;55064;49.636;12.164;2023-01-29T01:25:11;-2.70;83.14
68248;SHT30;55064;49.636;12.164;2023-01-29T01:27:37;-2.69;82.79
68248;SHT30;55064;49.636;12.164;2023-01-29T01:30:15;-2.72;83.01
68248;SHT30;55064;49.636;12.164;2023-01-29T01:32:41;-2.75;82.64
68248;SHT30;55064;49.636;12.164;2023-01-29T01:35:10;-2.78;82.96
68248;SHT30;55064;49.636;12.164;2023-01-29T01:37:35;-2.78;83.20
68248;SHT30;55064;49.636;12.164;2023-01-29T01:40:05;-2.78;83.00
68248;SHT30;55064;49.636;12.164;2023-01-29T01:42:38;-2.75;83.04
68248;SHT30;55064;49.636;12.164;2023-01-29T01:45:05;-2.75;82.99
68248;SHT30;55064;49.636;12.164;2023-01-29T01:48:11;-2.78;82.87
68248;SHT30;55064;49.636;12.164;2023-01-29T01:50:39;-2.85;82.93
68248;SHT30;55064;49.636;12.164;2023-01-29T01:53:12;-2.85;82.93
68248;SHT30;55064;49.636;12.164;2023-01-29T01:55:48;-2.80;83.17
68248;SHT30;55064;49.636;12.164;2023-01-29T01:58:21;-2.75;83.11
68248;SHT30;55064;49.636;12.164;2023-01-29T02:00:51;-2.79;83.07
68248;SHT30;55064;49.636;12.164;2023-01-29T02:03:20;-2.86;83.04
68248;SHT30;55064;49.636;12.164;2023-01-29T02:06:07;-2.79;82.92
68248;SHT30;55064;49.636;12.164;2023-01-29T02:08:57;-2.86;83.05
68248;SHT30;55064;49.636;12.164;2023-01-29T02:11:42;-2.87;83.05
68248;SHT30;55064;49.636;12.164;2023-01-29T02:14:08;-2.89;83.35
68248;SHT30;55064;49.636;12.164;2023-01-29T02:16:35;-2.95;83.01
68248;SHT30;55064;49.636;12.164;2023-01-29T02:19:01;-2.99;83.28
68248;SHT30;55064;49.636;12.164;2023-01-29T02:27:23;-2.92;82.83
68248;SHT30;55064;49.636;12.164;2023-01-29T02:30:12;-2.92;82.76
68248;SHT30;55064;49.636;12.164;2023-01-29T02:35:44;-2.93;82.60
68248;SHT30;55064;49.636;12.164;2023-01-29T02:38:12;-2.92;83.11
68248;SHT30;55064;49.636;12.164;2023-01-29T02:46:04;-2.86;82.78
68248;SHT30;55064;49.636;12.164;2023-01-29T02:49:09;-2.83;83.07
68248;SHT30;55064;49.636;12.164;2023-01-29T02:57:20;-2.83;83.27
68248;SHT30;55064;49.636;12.164;2023-01-29T02:59:55;-2.82;83.07
68248;SHT30;55064;49.636;12.164;2023-01-29T03:02:31;-2.92;82.62
68248;SHT30;55064;49.636;12.164;2023-01-29T03:05:02;-2.95;82.40
68248;SHT30;55064;49.636;12.164;2023-01-29T03:07:35;-2.89;82.40
68248;SHT30;55064;49.636;12.164;2023-01-29T03:12:44;-2.85;82.57
68248;SHT30;55064;49.636;12.164;2023-01-29T03:15:16;-2.93;82.62
68248;SHT30;55064;49.636;12.164;2023-01-29T03:18:09;-2.95;83.26
68248;SHT30;55064;49.636;12.164;2023-01-29T03:20:41;-2.96;83.61
68248;SHT30;55064;49.636;12.164;2023-01-29T03:23:23;-3.01;83.40
68248;SHT30;55064;49.636;12.164;2023-01-29T03:26:09;-3.01;83.01
68248;SHT30;55064;49.636;12.164;2023-01-29T03:28:54;-3.04;82.73
68248;SHT30;55064;49.636;12.164;2023-01-29T03:31:38;-3.07;82.85
68248;SHT30;55064;49.636;12.164;2023-01-29T03:34:26;-3.04;83.33
68248;SHT30;55064;49.636;12.164;2023-01-29T03:37:03;-3.01;83.19
68248;SHT30;55064;49.636;12.164;2023-01-29T03:39:32;-2.99;83.11
68248;SHT30;55064;49.636;12.164;2023-01-29T03:42:18;-2.95;83.03
68248;SHT30;55064;49.636;12.164;2023-01-29T03:47:23;-2.97;82.40
68248;SHT30;55064;49.636;12.164;2023-01-29T03:55:26;-3.00;82.70
68248;SHT30;55064;49.636;12.164;2023-01-29T03:57:59;-3.11;82.74
68248;SHT30;55064;49.636;12.164;2023-01-29T04:00:35;-3.10;82.74
68248;SHT30;55064;49.636;12.164;2023-01-29T04:05:35;-3.03;82.65
68248;SHT30;55064;49.636;12.164;2023-01-29T04:08:07;-3.01;82.59
68248;SHT30;55064;49.636;12.164;2023-01-29T04:10:37;-2.97;82.85
68248;SHT30;55064;49.636;12.164;2023-01-29T04:13:05;-2.95;82.90
68248;SHT30;55064;49.636;12.164;2023-01-29T04:15:41;-2.99;82.95
68248;SHT30;55064;49.636;12.164;2023-01-29T04:18:14;-2.97;83.03
68248;SHT30;55064;49.636;12.164;2023-01-29T04:20:39;-3.00;82.93
68248;SHT30;55064;49.636;12.164;2023-01-29T04:23:19;-3.04;82.84
68248;SHT30;55064;49.636;12.164;2023-01-29T04:28:56;-3.34;83.10
68248;SHT30;55064;49.636;12.164;2023-01-29T04:31:27;-3.28;83.13
68248;SHT30;55064;49.636;12.164;2023-01-29T04:39:10;-3.13;82.83
68248;SHT30;55064;49.636;12.164;2023-01-29T04:44:38;-3.11;83.23
68248;SHT30;55064;49.636;12.164;2023-01-29T04:47:38;-3.01;83.23
68248;SHT30;55064;49.636;12.164;2023-01-29T04:50:27;-3.06;82.95
68248;SHT30;55064;49.636;12.164;2023-01-29T04:58:47;-3.10;82.94
68248;SHT30;55064;49.636;12.164;2023-01-29T05:01:15;-3.11;83.34
68248;SHT30;55064;49.636;12.164;2023-01-29T05:03:46;-3.10;83.35
68248;SHT30;55064;49.636;12.164;2023-01-29T05:06:15;-3.08;83.56
68248;SHT30;55064;49.636;12.164;2023-01-29T05:08:42;-3.07;83.58
68248;SHT30;55064;49.636;12.164;2023-01-29T05:11:10;-3.14;83.43
68248;SHT30;55064;49.636;12.164;2023-01-29T05:13:38;-3.11;83.52
68248;SHT30;55064;49.636;12.164;2023-01-29T05:16:16;-3.04;83.43
68248;SHT30;55064;49.636;12.164;2023-01-29T05:18:49;-3.11;83.50
68248;SHT30;55064;49.636;12.164;2023-01-29T05:21:15;-3.14;83.47
68248;SHT30;55064;49.636;12.164;2023-01-29T05:23:40;-3.10;83.62
68248;SHT30;55064;49.636;12.164;2023-01-29T05:26:20;-3.10;83.39
68248;SHT30;55064;49.636;12.164;2023-01-29T05:29:06;-3.07;83.37
68248;SHT30;55064;49.636;12.164;2023-01-29T05:31:32;-3.03;83.22
68248;SHT30;55064;49.636;12.164;2023-01-29T05:33:57;-3.06;83.07
68248;SHT30;55064;49.636;12.164;2023-01-29T05:36:23;-3.08;83.02
68248;SHT30;55064;49.636;12.164;2023-01-29T05:38:50;-3.07;82.86
68248;SHT30;55064;49.636;12.164;2023-01-29T05:41:18;-3.14;83.18
68248;SHT30;55064;49.636;12.164;2023-01-29T05:43:43;-3.18;83.43
68248;SHT30;55064;49.636;12.164;2023-01-29T05:46:09;-3.27;83.30
68248;SHT30;55064;49.636;12.164;2023-01-29T05:48:36;-3.30;83.62
68248;SHT30;55064;49.636;12.164;2023-01-29T05:51:03;-3.25;83.96
68248;SHT30;55064;49.636;12.164;2023-01-29T05:53:30;-3.25;83.77
68248;SHT30;55064;49.636;12.164;2023-01-29T05:56:00;-3.21;83.55
68248;SHT30;55064;49.636;12.164;2023-01-29T05:58:25;-3.30;83.47
68248;SHT30;55064;49.636;12.164;2023-01-29T06:00:51;-3.30;83.62
68248;SHT30;55064;49.636;12.164;2023-01-29T06:03:17;-3.31;83.50
68248;SHT30;55064;49.636;12.164;2023-01-29T06:05:43;-3.33;83.47
68248;SHT30;55064;49.636;12.164;2023-01-29T06:08:11;-3.31;83.48
68248;SHT30;55064;49.636;12.164;2023-01-29T06:10:37;-3.41;83.82
68248;SHT30;55064;49.636;12.164;2023-01-29T06:13:02;-3.44;83.89
68248;SHT30;55064;49.636;12.164;2023-01-29T06:15:29;-3.42;83.64
68248;SHT30;55064;49.636;12.164;2023-01-29T06:17:56;-3.50;83.81
68248;SHT30;55064;49.636;12.164;2023-01-29T06:20:22;-3.52;83.81
68248;SHT30;55064;49.636;12.164;2023-01-29T06:22:48;-3.54;83.54
68248;SHT30;55064;49.636;12.164;2023-01-29T06:25:15;-3.56;83.54
68248;SHT30;55064;49.636;12.164;2023-01-29T06:27:41;-3.59;83.86
68248;SHT30;55064;49.636;12.164;2023-01-29T06:30:07;-3.61;83.68
68248;SHT30;55064;49.636;12.164;2023-01-29T06:32:32;-3.61;83.74
68248;SHT30;55064;49.636;12.164;2023-01-29T06:34:58;-3.65;84.11
68248;SHT30;55064;49.636;12.164;2023-01-29T06:37:23;-3.63;84.34
68248;SHT30;55064;49.636;12.164;2023-01-29T06:39:48;-3.61;83.99
68248;SHT30;55064;49.636;12.164;2023-01-29T06:42:14;-3.62;84.01
68248;SHT30;55064;49.636;12.164;2023-01-29T06:44:40;-3.59;84.29
68248;SHT30;55064;49.636;12.164;2023-01-29T06:47:05;-3.56;84.29
68248;SHT30;55064;49.636;12.164;2023-01-29T06:49:31;-3.56;84.09
68248;SHT30;55064;49.636;12.164;2023-01-29T06:51:56;-3.61;84.28
68248;SHT30;55064;49.636;12.164;2023-01-29T06:54:22;-3.61;84.24
68248;SHT30;55064;49.636;12.164;2023-01-29T06:56:48;-3.63;84.21
68248;SHT30;55064;49.636;12.164;2023-01-29T06:59:14;-3.61;84.04
68248;SHT30;55064;49.636;12.164;2023-01-29T07:01:40;-3.63;83.79
68248;SHT30;55064;49.636;12.164;2023-01-29T07:04:09;-3.62;83.95
68248;SHT30;55064;49.636;12.164;2023-01-29T07:06:34;-3.62;84.37
68248;SHT30;55064;49.636;12.164;2023-01-29T07:09:00;-3.61;84.19
68248;SHT30;55064;49.636;12.164;2023-01-29T07:11:25;-3.55;83.96
68248;SHT30;55064;49.636;12.164;2023-01-29T07:13:52;-3.63;83.52
68248;SHT30;55064;49.636;12.164;2023-01-29T07:16:17;-3.63;83.69
68248;SHT30;55064;49.636;12.164;2023-01-29T07:18:43;-3.59;84.13
68248;SHT30;55064;49.636;12.164;2023-01-29T07:21:10;-3.63;83.80
68248;SHT30;55064;49.636;12.164;2023-01-29T07:23:38;-3.61;83.75
68248;SHT30;55064;49.636;12.164;2023-01-29T07:26:04;-3.63;83.50
68248;SHT30;55064;49.636;12.164;2023-01-29T07:28:30;-3.63;83.54
68248;SHT30;55064;49.636;12.164;2023-01-29T07:30:59;-3.65;83.60
68248;SHT30;55064;49.636;12.164;2023-01-29T07:33:28;-3.61;83.19
68248;SHT30;55064;49.636;12.164;2023-01-29T07:35:55;-3.63;83.59
68248;SHT30;55064;49.636;12.164;2023-01-29T07:38:40;-3.66;83.72
68248;SHT30;55064;49.636;12.164;2023-01-29T07:41:06;-3.68;83.88
68248;SHT30;55064;49.636;12.164;2023-01-29T07:43:35;-3.63;84.12
68248;SHT30;55064;49.636;12.164;2023-01-29T07:46:01;-3.65;83.89
68248;SHT30;55064;49.636;12.164;2023-01-29T07:48:27;-3.65;83.63
68248;SHT30;55064;49.636;12.164;2023-01-29T07:50:55;-3.68;83.95
68248;SHT30;55064;49.636;12.164;2023-01-29T07:53:20;-3.62;83.56
68248;SHT30;55064;49.636;12.164;2023-01-29T07:55:47;-3.59;83.44
68248;SHT30;55064;49.636;12.164;2023-01-29T07:58:12;-3.58;83.42
68248;SHT30;55064;49.636;12.164;2023-01-29T08:00:38;-3.62;83.67
68248;SHT30;55064;49.636;12.164;2023-01-29T08:03:12;-3.59;83.76
68248;SHT30;55064;49.636;12.164;2023-01-29T08:05:37;-3.58;83.65
68248;SHT30;55064;49.636;12.164;2023-01-29T08:08:15;-3.45;83.06
68248;SHT30;55064;49.636;12.164;2023-01-29T08:11:00;-3.42;83.17
68248;SHT30;55064;49.636;12.164;2023-01-29T08:13:31;-3.48;83.39
68248;SHT30;55064;49.636;12.164;2023-01-29T08:16:02;-3.52;83.36
68248;SHT30;55064;49.636;12.164;2023-01-29T08:21:49;-3.56;83.48
68248;SHT30;55064;49.636;12.164;2023-01-29T08:24:15;-3.56;83.31
68248;SHT30;55064;49.636;12.164;2023-01-29T08:26:40;-3.50;83.17
68248;SHT30;55064;49.636;12.164;2023-01-29T08:29:05;-3.50;83.44
68248;SHT30;55064;49.636;12.164;2023-01-29T08:31:31;-3.47;83.26
68248;SHT30;55064;49.636;12.164;2023-01-29T08:33:57;-3.44;83.00
68248;SHT30;55064;49.636;12.164;2023-01-29T08:36:23;-3.47;82.98
68248;SHT30;55064;49.636;12.164;2023-01-29T08:38:48;-3.42;83.19
68248;SHT30;55064;49.636;12.164;2023-01-29T08:41:13;-3.33;82.51
68248;SHT30;55064;49.636;12.164;2023-01-29T08:43:41;-3.28;82.56
68248;SHT30;55064;49.636;12.164;2023-01-29T08:46:06;-3.27;82.53
68248;SHT30;55064;49.636;12.164;2023-01-29T08:48:32;-3.25;82.27
68248;SHT30;55064;49.636;12.164;2023-01-29T08:51:01;-3.28;81.91
68248;SHT30;55064;49.636;12.164;2023-01-29T08:53:26;-3.40;82.08
68248;SHT30;55064;49.636;12.164;2023-01-29T08:55:52;-3.23;82.20
68248;SHT30;55064;49.636;12.164;2023-01-29T08:58:20;-3.25;81.97
68248;SHT30;55064;49.636;12.164;2023-01-29T09:00:45;-3.17;81.90
68248;SHT30;55064;49.636;12.164;2023-01-29T09:03:11;-3.17;82.04
68248;SHT30;55064;49.636;12.164;2023-01-29T09:05:38;-3.08;82.34
68248;SHT30;55064;49.636;12.164;2023-01-29T09:08:07;-3.07;82.12
68248;SHT30;55064;49.636;12.164;2023-01-29T09:10:33;-3.06;81.73
68248;SHT30;55064;49.636;12.164;2023-01-29T09:12:59;-2.97;81.35
68248;SHT30;55064;49.636;12.164;2023-01-29T09:15:24;-3.06;81.33
68248;SHT30;55064;49.636;12.164;2023-01-29T09:17:49;-2.97;81.75
68248;SHT30;55064;49.636;12.164;2023-01-29T09:20:20;-2.99;81.50
68248;SHT30;55064;49.636;12.164;2023-01-29T09:22:46;-2.87;80.95
68248;SHT30;55064;49.636;12.164;2023-01-29T09:25:13;-2.92;81.11
68248;SHT30;55064;49.636;12.164;2023-01-29T09:27:38;-2.89;81.19
68248;SHT30;55064;49.636;12.164;2023-01-29T09:30:04;-2.86;81.15
68248;SHT30;55064;49.636;12.164;2023-01-29T09:32:35;-2.83;80.94
68248;SHT30;55064;49.636;12.164;2023-01-29T09:35:00;-2.80;81.01
68248;SHT30;55064;49.636;12.164;2023-01-29T09:37:27;-2.89;81.04
68248;SHT30;55064;49.636;12.164;2023-01-29T09:39:52;-2.79;81.13
68248;SHT30;55064;49.636;12.164;2023-01-29T09:42:24;-2.73;81.39
68248;SHT30;55064;49.636;12.164;2023-01-29T09:45:05;-2.68;80.99
68248;SHT30;55064;49.636;12.164;2023-01-29T09:47:35;-2.59;80.98
68248;SHT30;55064;49.636;12.164;2023-01-29T09:52:35;-2.55;80.35
68248;SHT30;55064;49.636;12.164;2023-01-29T09:55:06;-2.52;80.29
68248;SHT30;55064;49.636;12.164;2023-01-29T09:57:51;-2.59;80.13
68248;SHT30;55064;49.636;12.164;2023-01-29T10:00:35;-2.51;79.95
68248;SHT30;55064;49.636;12.164;2023-01-29T10:25:04;-2.44;78.83
68248;SHT30;55064;49.636;12.164;2023-01-29T10:27:33;-2.29;79.15
68248;SHT30;55064;49.636;12.164;2023-01-29T10:30:53;-2.23;79.24
68248;SHT30;55064;49.636;12.164;2023-01-29T10:32:54;-2.15;78.46
68248;SHT30;55064;49.636;12.164;2023-01-29T10:35:46;-2.11;78.77
68248;SHT30;55064;49.636;12.164;2023-01-29T10:44:29;-2.00;78.51
68248;SHT30;55064;49.636;12.164;2023-01-29T10:51:01;-2.13;79.13
68248;SHT30;55064;49.636;12.164;2023-01-29T10:57:18;-2.19;78.64
68248;SHT30;55064;49.636;12.164;2023-01-29T11:03:44;-2.11;78.57
68248;SHT30;55064;49.636;12.164;2023-01-29T11:12:30;-2.24;78.27
68248;SHT30;55064;49.636;12.164;2023-01-29T11:18:19;-2.19;77.57
68248;SHT30;55064;49.636;12.164;2023-01-29T11:24:13;-2.21;77.61
68248;SHT30;55064;49.636;12.164;2023-01-29T11:26:46;-2.23;78.22
68248;SHT30;55064;49.636;12.164;2023-01-29T11:36:19;-2.07;78.29
68248;SHT30;55064;49.636;12.164;2023-01-29T11:42:01;-2.04;77.46
68248;SHT30;55064;49.636;12.164;2023-01-29T11:44:33;-1.99;77.85
68248;SHT30;55064;49.636;12.164;2023-01-29T11:47:22;-1.96;77.66
68248;SHT30;55064;49.636;12.164;2023-01-29T11:49:55;-2.06;77.13
68248;SHT30;55064;49.636;12.164;2023-01-29T11:52:23;-2.10;77.70
68248;SHT30;55064;49.636;12.164;2023-01-29T11:55:02;-2.07;77.38
68248;SHT30;55064;49.636;12.164;2023-01-29T11:57:33;-2.03;76.89
68248;SHT30;55064;49.636;12.164;2023-01-29T12:00:16;-1.99;76.93
68248;SHT30;55064;49.636;12.164;2023-01-29T12:02:45;-1.90;76.71
68248;SHT30;55064;49.636;12.164;2023-01-29T12:05:17;-1.82;76.50
68248;SHT30;55064;49.636;12.164;2023-01-29T12:07:45;-1.76;76.24
68248;SHT30;55064;49.636;12.164;2023-01-29T12:18:41;-1.36;75.00
68248;SHT30;55064;49.636;12.164;2023-01-29T12:21:19;-1.26;74.27
68248;SHT30;55064;49.636;12.164;2023-01-29T12:23:56;-1.38;74.74
68248;SHT30;55064;49.636;12.164;2023-01-29T12:26:29;-1.48;74.15
68248;SHT30;55064;49.636;12.164;2023-01-29T12:32:29;-1.38;74.96
68248;SHT30;55064;49.636;12.164;2023-01-29T12:35:02;-1.31;74.20
68248;SHT30;55064;49.636;12.164;2023-01-29T12:37:53;-1.16;74.10
68248;SHT30;55064;49.636;12.164;2023-01-29T12:40:24;-1.19;73.68
68248;SHT30;55064;49.636;12.164;2023-01-29T12:42:55;-1.28;74.02
68248;SHT30;55064;49.636;12.164;2023-01-29T12:45:25;-1.17;74.00
68248;SHT30;55064;49.636;12.164;2023-01-29T12:47:59;-1.20;73.85
68248;SHT30;55064;49.636;12.164;2023-01-29T12:50:37;-1.28;74.29
68248;SHT30;55064;49.636;12.164;2023-01-29T12:53:19;-1.31;74.27
68248;SHT30;55064;49.636;12.164;2023-01-29T12:55:51;-1.17;73.96
68248;SHT30;55064;49.636;12.164;2023-01-29T12:58:46;-1.23;74.50
68248;SHT30;55064;49.636;12.164;2023-01-29T13:06:55;-1.21;74.03
68248;SHT30;55064;49.636;12.164;2023-01-29T13:09:26;-1.16;74.16
68248;SHT30;55064;49.636;12.164;2023-01-29T13:12:06;-1.07;74.34
68248;SHT30;55064;49.636;12.164;2023-01-29T13:14:55;-1.21;74.17
68248;SHT30;55064;49.636;12.164;2023-01-29T13:20:13;-1.03;74.07
68248;SHT30;55064;49.636;12.164;2023-01-29T13:22:51;-0.88;73.31
68248;SHT30;55064;49.636;12.164;2023-01-29T13:25:18;-0.85;73.12
68248;SHT30;55064;49.636;12.164;2023-01-29T13:27:46;-0.95;73.44
68248;SHT30;55064;49.636;12.164;2023-01-29T13:30:30;-1.09;73.83
68248;SHT30;55064;49.636;12.164;2023-01-29T13:32:59;-1.06;74.51
68248;SHT30;55064;49.636;12.164;2023-01-29T13:35:38;-0.93;74.02
68248;SHT30;55064;49.636;12.164;2023-01-29T13:38:21;-0.82;73.53
68248;SHT30;55064;49.636;12.164;2023-01-29T13:40:49;-0.79;73.67
68248;SHT30;55064;49.636;12.164;2023-01-29T13:43:22;-0.69;73.40
68248;SHT30;55064;49.636;12.164;2023-01-29T13:45:50;-0.73;72.86
68248;SHT30;55064;49.636;12.164;2023-01-29T13:48:24;-1.01;73.01
68248;SHT30;55064;49.636;12.164;2023-01-29T13:51:13;-0.89;73.55
68248;SHT30;55064;49.636;12.164;2023-01-29T13:53:59;-0.97;73.96
68248;SHT30;55064;49.636;12.164;2023-01-29T13:56:41;-0.95;74.25
68248;SHT30;55064;49.636;12.164;2023-01-29T13:59:47;-0.99;74.23
68248;SHT30;55064;49.636;12.164;2023-01-29T14:10:13;-1.30;74.97
68248;SHT30;55064;49.636;12.164;2023-01-29T14:12:41;-1.37;75.10
68248;SHT30;55064;49.636;12.164;2023-01-29T14:15:27;-1.44;75.32
68248;SHT30;55064;49.636;12.164;2023-01-29T14:20:50;-1.19;75.41
68248;SHT30;55064;49.636;12.164;2023-01-29T14:25:50;-1.27;75.96
68248;SHT30;55064;49.636;12.164;2023-01-29T14:28:21;-1.27;75.01
68248;SHT30;55064;49.636;12.164;2023-01-29T14:30:51;-1.37;75.84
68248;SHT30;55064;49.636;12.164;2023-01-29T14:33:45;-1.30;75.75
68248;SHT30;55064;49.636;12.164;2023-01-29T14:36:14;-1.48;76.06
68248;SHT30;55064;49.636;12.164;2023-01-29T14:38:45;-1.45;76.34
68248;SHT30;55064;49.636;12.164;2023-01-29T14:43:42;-1.48;76.66
68248;SHT30;55064;49.636;12.164;2023-01-29T14:48:58;-1.41;76.96
68248;SHT30;55064;49.636;12.164;2023-01-29T14:51:24;-1.41;76.76
68248;SHT30;55064;49.636;12.164;2023-01-29T14:54:03;-1.40;76.81
68248;SHT30;55064;49.636;12.164;2023-01-29T14:56:45;-1.41;77.35
68248;SHT30;55064;49.636;12.164;2023-01-29T14:59:18;-1.51;77.37
68248;SHT30;55064;49.636;12.164;2023-01-29T15:01:53;-1.52;77.06
68248;SHT30;55064;49.636;12.164;2023-01-29T15:04:40;-1.47;77.11
68248;SHT30;55064;49.636;12.164;2023-01-29T15:09:50;-1.50;77.22
68248;SHT30;55064;49.636;12.164;2023-01-29T15:17:58;-1.50;77.55
68248;SHT30;55064;49.636;12.164;2023-01-29T15:22:54;-1.56;77.68
68248;SHT30;55064;49.636;12.164;2023-01-29T15:25:20;-1.55;77.86
68248;SHT30;55064;49.636;12.164;2023-01-29T15:27:46;-1.55;77.82
68248;SHT30;55064;49.636;12.164;2023-01-29T15:30:18;-1.55;78.06
68248;SHT30;55064;49.636;12.164;2023-01-29T15:32:46;-1.59;78.01
68248;SHT30;55064;49.636;12.164;2023-01-29T15:35:27;-1.61;78.09
68248;SHT30;55064;49.636;12.164;2023-01-29T15:38:13;-1.71;78.38
68248;SHT30;55064;49.636;12.164;2023-01-29T15:40:39;-1.75;78.42
68248;SHT30;55064;49.636;12.164;2023-01-29T15:43:29;-1.78;78.87
68248;SHT30;55064;49.636;12.164;2023-01-29T15:45:59;-1.81;78.98
68248;SHT30;55064;49.636;12.164;2023-01-29T15:48:34;-1.82;79.35
68248;SHT30;55064;49.636;12.164;2023-01-29T15:51:05;-1.82;79.42
68248;SHT30;55064;49.636;12.164;2023-01-29T15:53:40;-1.87;79.60
68248;SHT30;55064;49.636;12.164;2023-01-29T15:56:10;-1.87;79.72
68248;SHT30;55064;49.636;12.164;2023-01-29T15:58:41;-1.92;79.74
68248;SHT30;55064;49.636;12.164;2023-01-29T16:01:07;-1.94;79.80
68248;SHT30;55064;49.636;12.164;2023-01-29T16:03:37;-1.97;79.70
68248;SHT30;55064;49.636;12.164;2023-01-29T16:06:03;-2.04;79.86
68248;SHT30;55064;49.636;12.164;2023-01-29T16:08:41;-2.06;80.16
68248;SHT30;55064;49.636;12.164;2023-01-29T16:11:11;-2.06;80.01
68248;SHT30;55064;49.636;12.164;2023-01-29T16:13:40;-1.97;79.90
68248;SHT30;55064;49.636;12.164;2023-01-29T16:18:43;-2.07;80.19
68248;SHT30;55064;49.636;12.164;2023-01-29T16:24:15;-2.09;80.47
68248;SHT30;55064;49.636;12.164;2023-01-29T16:32:49;-2.45;82.79
68248;SHT30;55064;49.636;12.164;2023-01-29T16:35:32;-2.49;83.08
68248;SHT30;55064;49.636;12.164;2023-01-29T16:38:02;-2.48;83.13
68248;SHT30;55064;49.636;12.164;2023-01-29T16:40:32;-2.52;82.88
68248;SHT30;55064;49.636;12.164;2023-01-29T16:45:41;-2.65;83.11
68248;SHT30;55064;49.636;12.164;2023-01-29T16:48:25;-2.68;83.34
68248;SHT30;55064;49.636;12.164;2023-01-29T16:51:05;-2.73;83.41
68248;SHT30;55064;49.636;12.164;2023-01-29T16:53:35;-2.76;83.71
68248;SHT30;55064;49.636;12.164;2023-01-29T16:56:04;-2.76;83.86
68248;SHT30;55064;49.636;12.164;2023-01-29T16:58:30;-2.80;83.88
68248;SHT30;55064;49.636;12.164;2023-01-29T17:01:00;-2.82;84.03
68248;SHT30;55064;49.636;12.164;2023-01-29T17:03:27;-2.80;83.94
68248;SHT30;55064;49.636;12.164;2023-01-29T17:05:55;-2.75;83.82
68248;SHT30;55064;49.636;12.164;2023-01-29T17:08:29;-2.76;84.07
68248;SHT30;55064;49.636;12.164;2023-01-29T17:10:59;-2.76;84.18
68248;SHT30;55064;49.636;12.164;2023-01-29T17:13:37;-2.73;84.03
68248;SHT30;55064;49.636;12.164;2023-01-29T17:16:28;-2.82;84.46
68248;SHT30;55064;49.636;12.164;2023-01-29T17:18:54;-2.83;84.72
68248;SHT30;55064;49.636;12.164;2023-01-29T17:21:20;-2.83;84.91
68248;SHT30;55064;49.636;12.164;2023-01-29T17:23:47;-2.85;84.81
68248;SHT30;55064;49.636;12.164;2023-01-29T17:26:13;-2.85;84.89
68248;SHT30;55064;49.636;12.164;2023-01-29T17:28:39;-2.92;85.35
68248;SHT30;55064;49.636;12.164;2023-01-29T17:31:06;-2.92;85.45
68248;SHT30;55064;49.636;12.164;2023-01-29T17:33:32;-2.93;85.33
68248;SHT30;55064;49.636;12.164;2023-01-29T17:35:58;-2.93;85.29
68248;SHT30;55064;49.636;12.164;2023-01-29T17:38:24;-2.96;85.54
68248;SHT30;55064;49.636;12.164;2023-01-29T17:43:26;-3.01;85.83
68248;SHT30;55064;49.636;12.164;2023-01-29T17:45:53;-3.03;85.83
68248;SHT30;55064;49.636;12.164;2023-01-29T17:48:21;-3.11;85.79
68248;SHT30;55064;49.636;12.164;2023-01-29T17:50:49;-3.13;85.89
68248;SHT30;55064;49.636;12.164;2023-01-29T17:53:19;-3.16;85.95
68248;SHT30;55064;49.636;12.164;2023-01-29T17:55:45;-3.14;86.01
68248;SHT30;55064;49.636;12.164;2023-01-29T17:58:22;-3.20;85.96
68248;SHT30;55064;49.636;12.164;2023-01-29T18:00:48;-3.20;86.06
68248;SHT30;55064;49.636;12.164;2023-01-29T18:03:16;-3.23;86.09
68248;SHT30;55064;49.636;12.164;2023-01-29T18:05:43;-3.27;86.16
68248;SHT30;55064;49.636;12.164;2023-01-29T18:08:21;-3.28;86.26
68248;SHT30;55064;49.636;12.164;2023-01-29T18:10:48;-3.24;86.05
68248;SHT30;55064;49.636;12.164;2023-01-29T18:13:13;-3.23;85.96
68248;SHT30;55064;49.636;12.164;2023-01-29T18:15:39;-3.30;85.93
68248;SHT30;55064;49.636;12.164;2023-01-29T18:18:04;-3.34;86.28
68248;SHT30;55064;49.636;12.164;2023-01-29T18:20:33;-3.47;86.71
68248;SHT30;55064;49.636;12.164;2023-01-29T18:23:02;-3.59;87.14
68248;SHT30;55064;49.636;12.164;2023-01-29T18:25:30;-3.63;87.60
68248;SHT30;55064;49.636;12.164;2023-01-29T18:27:57;-3.69;87.59
68248;SHT30;55064;49.636;12.164;2023-01-29T18:30:23;-3.69;87.65
68248;SHT30;55064;49.636;12.164;2023-01-29T18:32:48;-3.68;87.61
68248;SHT30;55064;49.636;12.164;2023-01-29T18:35:14;-3.68;87.25
68248;SHT30;55064;49.636;12.164;2023-01-29T18:37:42;-3.63;87.37
68248;SHT30;55064;49.636;12.164;2023-01-29T18:40:09;-3.66;87.29
68248;SHT30;55064;49.636;12.164;2023-01-29T18:42:37;-3.66;87.16
68248;SHT30;55064;49.636;12.164;2023-01-29T18:45:05;-3.66;87.17
68248;SHT30;55064;49.636;12.164;2023-01-29T18:47:31;-3.66;87.19